Skip Navigation

Christman Field Latest Observations

Switch to english unitsOther observation timesWeekly graphs

Date Time
MST
Temp
°C
RH
%
DewPt
°C
Wind
m/s
Dir
°
Gust
m/s
Dir
°
Press
hPa
Solar
W/m^2
Prec
mm
2017-06-24 05:15 11.2 79.2 7.7 2.1 331 2.3 331 849.93 15.0 0.00
2017-06-24 05:10 11.1 78.4 7.4 1.4 342 1.9 336 849.91 11.7 0.00
2017-06-24 05:05 10.9 78.7 7.4 1.4 335 1.6 335 849.91 7.5 0.00
2017-06-24 05:00 10.9 78.3 7.3 1.5 335 1.8 321 849.90 5.3 0.00
2017-06-24 04:55 10.9 77.8 7.2 1.3 321 1.7 321 849.81 4.2 0.00
2017-06-24 04:50 10.8 77.9 7.1 1.1 343 1.2 343 849.79 2.9 0.00
2017-06-24 04:45 10.6 78.5 7.0 1.1 343 1.5 343 849.82 2.0 0.00
2017-06-24 04:40 10.3 79.8 7.0 1.6 343 1.7 347 849.78 1.6 0.00
2017-06-24 04:35 10.2 80.8 7.0 1.9 347 2.2 318 849.77 1.2 0.00
2017-06-24 04:30 9.8 80.5 6.7 1.8 318 2.0 318 849.77 0.9 0.00
2017-06-24 04:25 9.3 82.4 6.5 1.8 308 2.0 303 849.73 0.7 0.00
2017-06-24 04:20 8.9 82.2 6.0 1.8 302 1.9 312 849.65 0.4 0.00
2017-06-24 04:15 8.9 79.9 5.6 1.7 316 1.8 316 849.64 0.3 0.00
2017-06-24 04:10 9.3 78.7 5.8 1.7 328 1.9 308 849.62 0.0 0.00
2017-06-24 04:05 9.3 79.8 6.0 1.4 308 1.6 308 849.59 0.0 0.00
2017-06-24 04:00 9.4 78.7 5.9 1.7 301 1.8 301 849.57 0.0 0.00
2017-06-24 03:55 9.3 80.0 6.0 1.4 302 1.8 302 849.53 0.0 0.00
2017-06-24 03:50 9.3 79.8 6.0 0.8 308 1.1 308 849.52 0.0 0.00
2017-06-24 03:45 9.5 80.1 6.2 0.6 292 1.1 282 849.52 0.0 0.00
2017-06-24 03:40 9.4 80.2 6.2 1.4 282 1.9 281 849.51 0.0 0.00
2017-06-24 03:35 9.8 78.7 6.3 1.8 281 2.0 281 849.52 0.0 0.00
2017-06-24 03:30 10.3 78.5 6.7 1.7 282 1.9 290 849.52 0.0 0.00
2017-06-24 03:25 10.4 78.1 6.7 1.8 291 2.0 290 849.53 0.0 0.00
2017-06-24 03:20 10.3 78.4 6.7 1.5 290 2.0 290 849.52 0.0 0.00
2017-06-24 03:15 10.4 78.1 6.7 1.4 282 1.6 297 849.54 0.0 0.00
2017-06-24 03:10 10.5 77.7 6.8 1.4 297 1.6 297 849.63 0.0 0.00
2017-06-24 03:05 10.5 77.9 6.8 1.6 297 1.8 297 849.63 0.0 0.00
2017-06-24 03:00 10.4 78.0 6.7 1.9 297 2.0 297 849.61 0.0 0.00
2017-06-24 02:55 10.3 78.0 6.6 1.7 297 1.9 297 849.62 0.0 0.00
2017-06-24 02:50 10.3 77.8 6.6 1.6 297 1.8 297 849.65 0.0 0.00